DW8618 Nerja ES current weather conditions

sailwx.info

Wind from 355 at 4 knots gusting 5

Air temperature 17.8° C
Dewpoint 10.9° C

Last reported at 2014-Oct-23 06:45 UTC.
Time now 2014-Oct-23 08:02 UTC

Location: N 36°46' W 003°52'.
View on Google Maps.

See reports from other nearby stations

  
Tides and Currents Weather Stations Pressure Air Temp Water Temp Dewpoint Dewpoint Depression Visibility Wind Speed Wind Dir Waves Ship Positions
date/time (UTC)wind fromknots sea level pressurealtimeterstation pressurevisibilityair tempwater tempwave heightnotes
2014-Oct-23 06:45 355 4 gusting 5 17.8
2014-Oct-23 06:30 355 2 gusting 4 17.8
2014-Oct-23 06:15 355 3 gusting 5 17.2
2014-Oct-23 06:01 360 3 gusting 4 17.2
2014-Oct-23 05:45 360 2 gusting 5 17.8
2014-Oct-23 05:31 005 17.8
2014-Oct-23 05:15 005 0 gusting 4 17.8
2014-Oct-23 05:01 343 2 gusting 3 18.3
2014-Oct-23 04:45 343 18.3
2014-Oct-23 04:30 342 18.3
2014-Oct-23 04:15 347 0 gusting 4 18.3
2014-Oct-23 04:01 348 18.3
2014-Oct-23 03:46 348 4 gusting 5 18.3
2014-Oct-23 03:30 339 1 gusting 4 18.3
2014-Oct-23 03:15 343 3 gusting 6 18.3
2014-Oct-23 03:01 005 2 gusting 5 18.3
2014-Oct-23 02:45 351 2 gusting 4 18.3
2014-Oct-23 02:31 349 3 gusting 5 18.3
2014-Oct-23 02:15 355 18.3
2014-Oct-23 02:01 355 1 gusting 5 18.3
2014-Oct-23 01:45 005 0 gusting 4 18.3
2014-Oct-23 01:30 005 18.3
2014-Oct-23 01:15 350 3 gusting 5 18.3
2014-Oct-23 01:01 022 1 gusting 5 18.3
2014-Oct-23 00:45 355 3 gusting 6 18.9
2014-Oct-23 00:31 355 1 gusting 3 18.9
2014-Oct-23 00:15 355 18.9
2014-Oct-23 00:01 349 2 gusting 5 18.9
2014-Oct-22 23:46 355 3 gusting 5 18.9
2014-Oct-22 23:30 360 19.4
2014-Oct-22 23:16 355 0 gusting 4 19.4
2014-Oct-22 23:01 346 3 gusting 6 19.4
2014-Oct-22 22:45 355 19.4
2014-Oct-22 22:31 355 3 gusting 5 19.4
2014-Oct-22 22:15 355 2 gusting 4 19.4
2014-Oct-22 22:01 355 0 gusting 3 19.4
2014-Oct-22 21:45 345 2 gusting 4 19.4
2014-Oct-22 21:30 349 1 gusting 5 20.0
2014-Oct-22 21:15 014 0 gusting 4 20.0
2014-Oct-22 21:01 332 20.0
2014-Oct-22 20:45 336 2 gusting 5 20.0
2014-Oct-22 20:30 336 20.0
2014-Oct-22 20:16 334 0 gusting 4 20.0
2014-Oct-22 20:01 336 20.6
2014-Oct-22 19:46 336 21.1
2014-Oct-22 19:30 336 21.1
2014-Oct-22 19:15 313 21.1
2014-Oct-22 19:01 327 21.1
2014-Oct-22 18:45 327 21.7
2014-Oct-22 18:31 327 21.7
2014-Oct-22 18:16 223 22.2
2014-Oct-22 18:01 165 22.2
2014-Oct-22 17:46 165 22.8
2014-Oct-22 17:31 046 23.3
2014-Oct-22 17:15 129 23.3
2014-Oct-22 17:01 114 0 gusting 6 23.3
2014-Oct-22 16:46 131 3 gusting 7 23.3
2014-Oct-22 16:30 165 23.3
2014-Oct-22 16:15 166 0 gusting 3 22.8
2014-Oct-22 16:01 166 0 gusting 5 22.8
2014-Oct-22 15:45 166 1 gusting 5 22.8
2014-Oct-22 15:31 140 0 gusting 5 22.8
2014-Oct-22 15:16 075 2 gusting 6 22.8
2014-Oct-22 15:01 106 0 gusting 6 23.3
2014-Oct-22 14:46 177 2 gusting 6 23.3
2014-Oct-22 14:30 111 2 gusting 6 23.9
2014-Oct-22 14:15 184 23.9
2014-Oct-22 14:01 179 2 gusting 4 24.4
2014-Oct-22 13:46 171 23.9
2014-Oct-22 13:31 150 3 gusting 7 23.3
2014-Oct-22 13:15 121 3 gusting 9 23.9
2014-Oct-22 12:45 128 4 gusting 10 25.0
2014-Oct-22 12:30 162 2 gusting 6 25.6
2014-Oct-22 12:15 328 1 gusting 6 32.2
2014-Oct-22 12:01 158 27.2
2014-Oct-22 11:46 158 24.4
2014-Oct-22 11:31 157 3 gusting 6 23.9
2014-Oct-22 11:16 156 4 gusting 6 23.9
2014-Oct-22 11:01 161 26.7
2014-Oct-22 10:45 161 1 gusting 3 25.6
2014-Oct-22 10:30 158 26.7
2014-Oct-22 10:15 158 25.0
2014-Oct-22 10:01 158 25.0
2014-Oct-22 09:46 158 23.9
2014-Oct-22 09:30 158 23.9
2014-Oct-22 09:15 144 0 gusting 2 25.0
2014-Oct-22 09:01 144 26.1
2014-Oct-22 08:45 144 25.0
2014-Oct-22 08:30 144 25.0
2014-Oct-22 08:15 144 23.3
2014-Oct-22 08:01 144 21.1
2014-Oct-22 07:45 144 20.6
2014-Oct-22 07:30 144 20.0
2014-Oct-22 07:15 144 19.4
2014-Oct-22 07:01 144 0 gusting 1 19.4
2014-Oct-22 06:45 144 18.9
2014-Oct-22 06:30 144 19.4
2014-Oct-22 06:15 144 19.4
2014-Oct-22 06:01 144 19.4
2014-Oct-22 05:45 144 19.4
2014-Oct-22 05:30 144 19.4
2014-Oct-22 05:15 150 18.9
2014-Oct-22 05:01 153 20.0
2014-Oct-22 04:45 153 20.0
2014-Oct-22 04:30 153 20.0
2014-Oct-22 04:15 153 19.4
2014-Oct-22 04:01 154 19.4
2014-Oct-22 03:45 154 20.0
2014-Oct-22 03:30 154 19.4
2014-Oct-22 03:15 154 19.4
2014-Oct-22 03:01 154 20.0
2014-Oct-22 02:45 154 20.0
2014-Oct-22 02:30 154 20.0
2014-Oct-22 02:15 154 20.0
2014-Oct-22 02:01 154 20.0
2014-Oct-22 01:45 154 20.6
2014-Oct-22 01:30 154 21.1
2014-Oct-22 01:15 154 20.6
2014-Oct-22 01:01 154 2 gusting 3 20.6
2014-Oct-22 00:45 154 21.1
2014-Oct-22 00:30 154 21.1
2014-Oct-22 00:15 154 21.1
2014-Oct-22 00:01 154 0 gusting 3 21.1
2014-Oct-21 23:45 154 21.1
2014-Oct-21 23:30 154 21.1
2014-Oct-21 23:15 154 21.1
2014-Oct-21 23:01 154 21.7
2014-Oct-21 22:30 154 1 gusting 6 21.1
2014-Oct-21 22:15 157 2 gusting 3 21.1
2014-Oct-21 22:01 157 0 gusting 4 21.1
2014-Oct-21 21:45 157 21.1
2014-Oct-21 21:30 157 21.1
2014-Oct-21 21:15 157 21.7
2014-Oct-21 21:01 157 21.7
2014-Oct-21 20:45 157 21.7
2014-Oct-21 20:30 157 21.7
2014-Oct-21 20:15 157 21.7
2014-Oct-21 20:01 157 22.2
2014-Oct-21 19:45 157 22.2
2014-Oct-21 19:30 157 22.2
2014-Oct-21 19:15 157 0 gusting 3 22.2
2014-Oct-21 19:01 157 2 gusting 4 22.8
2014-Oct-21 18:45 157 1 gusting 4 22.8
2014-Oct-21 18:30 157 22.8
2014-Oct-21 18:15 157 0 gusting 3 22.8
2014-Oct-21 18:01 157 23.3
2014-Oct-21 17:45 157 22.8
2014-Oct-21 17:30 157 23.3
2014-Oct-21 17:15 157 23.9
2014-Oct-21 17:01 157 23.9
2014-Oct-21 16:45 157 23.9
2014-Oct-21 16:30 157 23.9
2014-Oct-21 16:15 157 24.4
2014-Oct-21 16:01 157 23.9
2014-Oct-21 15:45 157 23.3
2014-Oct-21 15:30 157 23.3
2014-Oct-21 15:15 157 23.3
2014-Oct-21 15:01 157 23.3
2014-Oct-21 14:45 157 23.3
2014-Oct-21 14:31 157 23.3
2014-Oct-21 14:15 157 0 gusting 3 23.9
2014-Oct-21 14:01 157 0 gusting 3 23.9
2014-Oct-21 13:30 157 1 gusting 4 22.8
2014-Oct-21 13:15 157 2 gusting 5 22.8
2014-Oct-21 12:45 155 0 gusting 5 23.3
2014-Oct-21 12:30 142 1 gusting 4 22.8
2014-Oct-21 12:15 142 0 gusting 3 23.3
2014-Oct-21 12:01 142 1 gusting 4 22.8
2014-Oct-21 11:45 141 2 gusting 5 22.8
2014-Oct-21 11:30 136 1 gusting 5 22.8
2014-Oct-21 11:15 133 23.3
2014-Oct-21 11:01 132 0 gusting 3 23.9
2014-Oct-21 10:45 132 23.3
2014-Oct-21 10:30 132 22.2
2014-Oct-21 10:15 132 0 gusting 3 22.2
2014-Oct-21 10:01 123 0 gusting 4 22.2
2014-Oct-21 09:45 115 1 gusting 4 22.8
2014-Oct-21 09:30 083 23.9
2014-Oct-21 09:15 083 0 gusting 4 22.8
2014-Oct-21 09:01 005 22.8
2014-Oct-21 08:45 005 22.2
2014-Oct-21 08:30 005 22.2
2014-Oct-21 08:15 005 22.2
2014-Oct-21 08:01 005 21.1